sensor_id;sensor_type;location;lat;lon;timestamp;P1;durP1;ratioP1;P2;durP2;ratioP2
11185;SDS011;5649;52.422;13.754;2023-02-21T00:01:28;2.83;;;2.07;;
11185;SDS011;5649;52.422;13.754;2023-02-21T00:04:12;2.33;;;1.80;;
11185;SDS011;5649;52.422;13.754;2023-02-21T00:06:57;2.00;;;1.80;;
11185;SDS011;5649;52.422;13.754;2023-02-21T00:09:41;2.07;;;1.97;;
11185;SDS011;5649;52.422;13.754;2023-02-21T00:12:26;4.90;;;2.47;;
11185;SDS011;5649;52.422;13.754;2023-02-21T00:15:11;5.13;;;2.10;;
11185;SDS011;5649;52.422;13.754;2023-02-21T00:17:55;1.73;;;1.63;;
11185;SDS011;5649;52.422;13.754;2023-02-21T00:20:39;2.07;;;1.87;;
11185;SDS011;5649;52.422;13.754;2023-02-21T00:23:24;2.10;;;1.90;;
11185;SDS011;5649;52.422;13.754;2023-02-21T00:26:09;2.10;;;1.90;;
11185;SDS011;5649;52.422;13.754;2023-02-21T00:28:53;2.50;;;2.30;;
11185;SDS011;5649;52.422;13.754;2023-02-21T00:31:38;2.10;;;1.90;;
11185;SDS011;5649;52.422;13.754;2023-02-21T00:34:22;1.87;;;1.77;;
11185;SDS011;5649;52.422;13.754;2023-02-21T00:37:07;2.07;;;1.90;;
11185;SDS011;5649;52.422;13.754;2023-02-21T00:39:52;2.73;;;2.10;;
11185;SDS011;5649;52.422;13.754;2023-02-21T00:42:36;1.87;;;1.77;;
11185;SDS011;5649;52.422;13.754;2023-02-21T00:45:21;2.17;;;1.90;;
11185;SDS011;5649;52.422;13.754;2023-02-21T00:48:05;1.90;;;1.70;;
11185;SDS011;5649;52.422;13.754;2023-02-21T00:50:50;1.90;;;1.80;;
11185;SDS011;5649;52.422;13.754;2023-02-21T00:53:35;3.83;;;2.63;;
11185;SDS011;5649;52.422;13.754;2023-02-21T00:56:19;2.00;;;1.90;;
11185;SDS011;5649;52.422;13.754;2023-02-21T00:59:04;2.30;;;2.10;;
11185;SDS011;5649;52.422;13.754;2023-02-21T01:01:48;2.43;;;2.23;;
11185;SDS011;5649;52.422;13.754;2023-02-21T01:04:33;2.50;;;2.00;;
11185;SDS011;5649;52.422;13.754;2023-02-21T01:07:17;2.37;;;2.17;;
11185;SDS011;5649;52.422;13.754;2023-02-21T01:10:02;2.77;;;2.10;;
11185;SDS011;5649;52.422;13.754;2023-02-21T01:12:47;2.70;;;2.50;;
11185;SDS011;5649;52.422;13.754;2023-02-21T01:15:31;1.37;;;1.27;;
11185;SDS011;5649;52.422;13.754;2023-02-21T01:18:16;6.73;;;2.10;;
11185;SDS011;5649;52.422;13.754;2023-02-21T01:21:00;2.23;;;2.00;;
11185;SDS011;5649;52.422;13.754;2023-02-21T01:23:45;2.80;;;2.20;;
11185;SDS011;5649;52.422;13.754;2023-02-21T01:26:29;2.70;;;2.17;;
11185;SDS011;5649;52.422;13.754;2023-02-21T01:29:15;3.13;;;2.23;;
11185;SDS011;5649;52.422;13.754;2023-02-21T01:31:59;2.30;;;2.10;;
11185;SDS011;5649;52.422;13.754;2023-02-21T01:34:44;2.20;;;2.00;;
11185;SDS011;5649;52.422;13.754;2023-02-21T01:37:28;5.67;;;2.40;;
11185;SDS011;5649;52.422;13.754;2023-02-21T01:40:14;3.07;;;2.80;;
11185;SDS011;5649;52.422;13.754;2023-02-21T01:42:59;2.53;;;2.10;;
11185;SDS011;5649;52.422;13.754;2023-02-21T01:45:50;3.03;;;2.50;;
11185;SDS011;5649;52.422;13.754;2023-02-21T01:48:34;5.40;;;2.90;;
11185;SDS011;5649;52.422;13.754;2023-02-21T01:51:21;4.23;;;2.57;;
11185;SDS011;5649;52.422;13.754;2023-02-21T01:54:06;4.10;;;2.93;;
11185;SDS011;5649;52.422;13.754;2023-02-21T01:56:52;4.47;;;2.70;;
11185;SDS011;5649;52.422;13.754;2023-02-21T01:59:38;4.30;;;2.57;;
11185;SDS011;5649;52.422;13.754;2023-02-21T02:02:28;2.70;;;2.50;;
11185;SDS011;5649;52.422;13.754;2023-02-21T02:05:15;2.90;;;2.60;;
11185;SDS011;5649;52.422;13.754;2023-02-21T02:08:00;3.00;;;2.80;;
11185;SDS011;5649;52.422;13.754;2023-02-21T02:10:45;3.80;;;2.60;;
11185;SDS011;5649;52.422;13.754;2023-02-21T02:16:00;2.30;;;2.10;;
11185;SDS011;5649;52.422;13.754;2023-02-21T02:21:16;3.43;;;2.40;;
11185;SDS011;5649;52.422;13.754;2023-02-21T02:24:01;3.47;;;2.10;;
11185;SDS011;5649;52.422;13.754;2023-02-21T02:37:17;3.30;;;2.50;;
11185;SDS011;5649;52.422;13.754;2023-02-21T02:47:40;3.60;;;2.67;;
11185;SDS011;5649;52.422;13.754;2023-02-21T02:50:07;2.70;;;2.47;;
11185;SDS011;5649;52.422;13.754;2023-02-21T02:52:34;3.00;;;2.60;;
11185;SDS011;5649;52.422;13.754;2023-02-21T02:57:45;5.23;;;2.60;;
11185;SDS011;5649;52.422;13.754;2023-02-21T03:00:13;4.90;;;3.20;;
11185;SDS011;5649;52.422;13.754;2023-02-21T03:02:52;4.50;;;2.97;;
11185;SDS011;5649;52.422;13.754;2023-02-21T03:10:37;3.47;;;2.57;;
11185;SDS011;5649;52.422;13.754;2023-02-21T03:13:21;4.33;;;3.23;;
11185;SDS011;5649;52.422;13.754;2023-02-21T03:15:58;3.60;;;2.50;;
11185;SDS011;5649;52.422;13.754;2023-02-21T03:18:30;5.60;;;3.53;;
11185;SDS011;5649;52.422;13.754;2023-02-21T03:20:59;3.80;;;2.93;;
11185;SDS011;5649;52.422;13.754;2023-02-21T03:23:26;6.60;;;3.40;;
11185;SDS011;5649;52.422;13.754;2023-02-21T03:25:53;3.70;;;2.97;;
11185;SDS011;5649;52.422;13.754;2023-02-21T03:28:21;5.50;;;3.07;;
11185;SDS011;5649;52.422;13.754;2023-02-21T03:30:49;4.77;;;2.43;;
11185;SDS011;5649;52.422;13.754;2023-02-21T03:33:16;6.93;;;3.40;;
11185;SDS011;5649;52.422;13.754;2023-02-21T03:35:42;7.50;;;3.73;;
11185;SDS011;5649;52.422;13.754;2023-02-21T03:38:08;5.57;;;3.00;;
11185;SDS011;5649;52.422;13.754;2023-02-21T03:40:35;4.33;;;3.60;;
11185;SDS011;5649;52.422;13.754;2023-02-21T03:43:01;3.93;;;2.87;;
11185;SDS011;5649;52.422;13.754;2023-02-21T03:45:29;4.47;;;3.00;;
11185;SDS011;5649;52.422;13.754;2023-02-21T03:47:55;6.23;;;3.23;;
11185;SDS011;5649;52.422;13.754;2023-02-21T03:50:21;4.83;;;3.50;;
11185;SDS011;5649;52.422;13.754;2023-02-21T03:52:47;7.33;;;3.60;;
11185;SDS011;5649;52.422;13.754;2023-02-21T03:55:13;2.77;;;2.50;;
11185;SDS011;5649;52.422;13.754;2023-02-21T03:57:39;6.37;;;3.10;;
11185;SDS011;5649;52.422;13.754;2023-02-21T04:00:05;4.93;;;3.20;;
11185;SDS011;5649;52.422;13.754;2023-02-21T04:02:31;4.50;;;2.67;;
11185;SDS011;5649;52.422;13.754;2023-02-21T04:04:57;7.97;;;3.37;;
11185;SDS011;5649;52.422;13.754;2023-02-21T04:07:24;2.83;;;2.53;;
11185;SDS011;5649;52.422;13.754;2023-02-21T04:09:50;6.53;;;3.40;;
11185;SDS011;5649;52.422;13.754;2023-02-21T04:12:16;3.73;;;2.87;;
11185;SDS011;5649;52.422;13.754;2023-02-21T04:14:42;3.93;;;3.13;;
11185;SDS011;5649;52.422;13.754;2023-02-21T04:17:09;3.20;;;2.87;;
11185;SDS011;5649;52.422;13.754;2023-02-21T04:19:35;9.27;;;2.70;;
11185;SDS011;5649;52.422;13.754;2023-02-21T04:22:01;8.07;;;4.07;;
11185;SDS011;5649;52.422;13.754;2023-02-21T04:24:27;4.00;;;3.60;;
11185;SDS011;5649;52.422;13.754;2023-02-21T04:26:53;4.20;;;3.63;;
11185;SDS011;5649;52.422;13.754;2023-02-21T04:29:19;3.23;;;2.77;;
11185;SDS011;5649;52.422;13.754;2023-02-21T04:31:45;4.20;;;2.97;;
11185;SDS011;5649;52.422;13.754;2023-02-21T04:34:11;4.97;;;3.13;;
11185;SDS011;5649;52.422;13.754;2023-02-21T04:36:38;5.23;;;3.40;;
11185;SDS011;5649;52.422;13.754;2023-02-21T04:39:04;8.23;;;3.20;;
11185;SDS011;5649;52.422;13.754;2023-02-21T04:41:30;7.57;;;3.30;;
11185;SDS011;5649;52.422;13.754;2023-02-21T04:43:57;3.90;;;2.97;;
11185;SDS011;5649;52.422;13.754;2023-02-21T04:46:23;3.60;;;3.07;;
11185;SDS011;5649;52.422;13.754;2023-02-21T04:48:50;3.40;;;3.10;;
11185;SDS011;5649;52.422;13.754;2023-02-21T04:51:17;6.77;;;2.90;;
11185;SDS011;5649;52.422;13.754;2023-02-21T04:53:47;7.33;;;3.40;;
11185;SDS011;5649;52.422;13.754;2023-02-21T04:56:14;4.50;;;3.33;;
11185;SDS011;5649;52.422;13.754;2023-02-21T04:58:40;3.93;;;3.27;;
11185;SDS011;5649;52.422;13.754;2023-02-21T05:01:06;8.77;;;3.10;;
11185;SDS011;5649;52.422;13.754;2023-02-21T05:03:32;4.53;;;3.20;;
11185;SDS011;5649;52.422;13.754;2023-02-21T05:05:59;4.00;;;3.37;;
11185;SDS011;5649;52.422;13.754;2023-02-21T05:08:25;4.43;;;3.40;;
11185;SDS011;5649;52.422;13.754;2023-02-21T05:10:51;4.43;;;3.57;;
11185;SDS011;5649;52.422;13.754;2023-02-21T05:13:19;6.77;;;4.07;;
11185;SDS011;5649;52.422;13.754;2023-02-21T05:15:45;3.60;;;3.00;;
11185;SDS011;5649;52.422;13.754;2023-02-21T05:18:11;6.33;;;3.70;;
11185;SDS011;5649;52.422;13.754;2023-02-21T05:20:37;5.50;;;3.53;;
11185;SDS011;5649;52.422;13.754;2023-02-21T05:23:03;4.67;;;3.20;;
11185;SDS011;5649;52.422;13.754;2023-02-21T05:25:29;4.87;;;4.07;;
11185;SDS011;5649;52.422;13.754;2023-02-21T05:27:55;4.30;;;3.87;;
11185;SDS011;5649;52.422;13.754;2023-02-21T05:30:21;7.07;;;4.37;;
11185;SDS011;5649;52.422;13.754;2023-02-21T05:32:48;5.40;;;3.33;;
11185;SDS011;5649;52.422;13.754;2023-02-21T05:35:14;5.00;;;3.77;;
11185;SDS011;5649;52.422;13.754;2023-02-21T05:37:41;4.00;;;3.30;;
11185;SDS011;5649;52.422;13.754;2023-02-21T05:40:09;6.60;;;4.20;;
11185;SDS011;5649;52.422;13.754;2023-02-21T05:42:36;7.13;;;4.00;;
11185;SDS011;5649;52.422;13.754;2023-02-21T05:45:02;10.83;;;4.27;;
11185;SDS011;5649;52.422;13.754;2023-02-21T05:47:32;5.87;;;4.10;;
11185;SDS011;5649;52.422;13.754;2023-02-21T05:49:58;6.97;;;4.30;;
11185;SDS011;5649;52.422;13.754;2023-02-21T05:52:25;6.37;;;4.37;;
11185;SDS011;5649;52.422;13.754;2023-02-21T05:54:52;4.83;;;3.90;;
11185;SDS011;5649;52.422;13.754;2023-02-21T05:57:18;7.70;;;4.37;;
11185;SDS011;5649;52.422;13.754;2023-02-21T05:59:44;6.53;;;3.87;;
11185;SDS011;5649;52.422;13.754;2023-02-21T06:02:13;4.60;;;3.90;;
11185;SDS011;5649;52.422;13.754;2023-02-21T06:04:39;5.67;;;3.80;;
11185;SDS011;5649;52.422;13.754;2023-02-21T06:07:05;5.40;;;3.37;;
11185;SDS011;5649;52.422;13.754;2023-02-21T06:09:31;8.33;;;4.17;;
11185;SDS011;5649;52.422;13.754;2023-02-21T06:11:57;6.17;;;3.80;;
11185;SDS011;5649;52.422;13.754;2023-02-21T06:14:23;6.33;;;4.40;;
11185;SDS011;5649;52.422;13.754;2023-02-21T06:16:50;6.57;;;4.13;;
11185;SDS011;5649;52.422;13.754;2023-02-21T06:19:17;6.83;;;4.77;;
11185;SDS011;5649;52.422;13.754;2023-02-21T06:21:43;5.30;;;4.03;;
11185;SDS011;5649;52.422;13.754;2023-02-21T06:24:09;4.63;;;3.80;;
11185;SDS011;5649;52.422;13.754;2023-02-21T06:26:36;6.03;;;3.60;;
11185;SDS011;5649;52.422;13.754;2023-02-21T06:29:05;5.07;;;3.47;;
11185;SDS011;5649;52.422;13.754;2023-02-21T06:31:31;7.23;;;3.47;;
11185;SDS011;5649;52.422;13.754;2023-02-21T06:33:58;5.17;;;3.37;;
11185;SDS011;5649;52.422;13.754;2023-02-21T06:36:25;6.10;;;3.80;;
11185;SDS011;5649;52.422;13.754;2023-02-21T06:38:53;3.60;;;3.30;;
11185;SDS011;5649;52.422;13.754;2023-02-21T06:41:24;9.40;;;4.30;;
11185;SDS011;5649;52.422;13.754;2023-02-21T06:43:51;5.60;;;3.90;;
11185;SDS011;5649;52.422;13.754;2023-02-21T06:46:21;5.10;;;3.40;;
11185;SDS011;5649;52.422;13.754;2023-02-21T06:48:48;4.70;;;3.67;;
11185;SDS011;5649;52.422;13.754;2023-02-21T06:51:14;19.13;;;4.30;;
11185;SDS011;5649;52.422;13.754;2023-02-21T06:53:40;8.00;;;3.30;;
11185;SDS011;5649;52.422;13.754;2023-02-21T06:56:07;10.27;;;4.20;;
11185;SDS011;5649;52.422;13.754;2023-02-21T06:58:33;5.90;;;3.60;;
11185;SDS011;5649;52.422;13.754;2023-02-21T07:00:59;6.20;;;4.30;;
11185;SDS011;5649;52.422;13.754;2023-02-21T07:03:25;6.40;;;3.70;;
11185;SDS011;5649;52.422;13.754;2023-02-21T07:05:51;8.83;;;3.93;;
11185;SDS011;5649;52.422;13.754;2023-02-21T07:08:17;5.70;;;3.80;;
11185;SDS011;5649;52.422;13.754;2023-02-21T07:10:43;4.20;;;3.50;;
11185;SDS011;5649;52.422;13.754;2023-02-21T07:13:09;7.30;;;3.77;;
11185;SDS011;5649;52.422;13.754;2023-02-21T07:15:35;4.80;;;3.77;;
11185;SDS011;5649;52.422;13.754;2023-02-21T07:18:01;5.43;;;4.00;;
11185;SDS011;5649;52.422;13.754;2023-02-21T07:20:27;7.37;;;4.77;;
11185;SDS011;5649;52.422;13.754;2023-02-21T07:22:53;7.30;;;4.20;;
11185;SDS011;5649;52.422;13.754;2023-02-21T07:25:21;5.83;;;4.00;;
11185;SDS011;5649;52.422;13.754;2023-02-21T07:27:47;5.50;;;3.83;;
11185;SDS011;5649;52.422;13.754;2023-02-21T07:30:13;6.50;;;4.50;;
11185;SDS011;5649;52.422;13.754;2023-02-21T07:32:40;6.10;;;3.43;;
11185;SDS011;5649;52.422;13.754;2023-02-21T07:35:06;3.53;;;3.07;;
11185;SDS011;5649;52.422;13.754;2023-02-21T07:37:32;5.27;;;3.83;;
11185;SDS011;5649;52.422;13.754;2023-02-21T07:39:58;3.43;;;2.63;;
11185;SDS011;5649;52.422;13.754;2023-02-21T07:42:24;3.17;;;2.90;;
11185;SDS011;5649;52.422;13.754;2023-02-21T07:44:54;2.60;;;2.40;;
11185;SDS011;5649;52.422;13.754;2023-02-21T07:47:21;5.07;;;2.60;;
11185;SDS011;5649;52.422;13.754;2023-02-21T07:49:47;5.17;;;3.57;;
11185;SDS011;5649;52.422;13.754;2023-02-21T07:52:13;2.93;;;2.47;;
11185;SDS011;5649;52.422;13.754;2023-02-21T07:54:40;4.83;;;3.50;;
11185;SDS011;5649;52.422;13.754;2023-02-21T07:57:06;2.87;;;1.83;;
11185;SDS011;5649;52.422;13.754;2023-02-21T07:59:32;3.30;;;3.00;;
11185;SDS011;5649;52.422;13.754;2023-02-21T08:01:58;4.30;;;2.70;;
11185;SDS011;5649;52.422;13.754;2023-02-21T08:04:25;1.43;;;1.33;;
11185;SDS011;5649;52.422;13.754;2023-02-21T08:06:51;1.47;;;1.17;;
11185;SDS011;5649;52.422;13.754;2023-02-21T08:09:17;1.80;;;1.70;;
11185;SDS011;5649;52.422;13.754;2023-02-21T08:11:43;2.50;;;1.60;;
11185;SDS011;5649;52.422;13.754;2023-02-21T08:14:09;1.43;;;1.33;;
11185;SDS011;5649;52.422;13.754;2023-02-21T08:16:35;2.63;;;1.90;;
11185;SDS011;5649;52.422;13.754;2023-02-21T08:19:01;1.27;;;1.17;;
11185;SDS011;5649;52.422;13.754;2023-02-21T08:21:29;1.30;;;1.20;;
11185;SDS011;5649;52.422;13.754;2023-02-21T08:23:55;2.07;;;1.20;;
11185;SDS011;5649;52.422;13.754;2023-02-21T08:26:21;0.93;;;0.93;;
11185;SDS011;5649;52.422;13.754;2023-02-21T08:28:47;1.03;;;0.90;;
11185;SDS011;5649;52.422;13.754;2023-02-21T08:31:13;1.37;;;1.10;;
11185;SDS011;5649;52.422;13.754;2023-02-21T08:33:39;0.80;;;0.80;;
11185;SDS011;5649;52.422;13.754;2023-02-21T08:36:05;0.87;;;0.70;;
11185;SDS011;5649;52.422;13.754;2023-02-21T08:38:32;4.10;;;1.30;;
11185;SDS011;5649;52.422;13.754;2023-02-21T08:40:58;0.90;;;0.90;;
11185;SDS011;5649;52.422;13.754;2023-02-21T08:43:24;1.87;;;1.23;;
11185;SDS011;5649;52.422;13.754;2023-02-21T08:45:50;1.10;;;1.10;;
11185;SDS011;5649;52.422;13.754;2023-02-21T08:48:16;1.20;;;1.10;;
11185;SDS011;5649;52.422;13.754;2023-02-21T08:50:42;3.07;;;1.10;;
11185;SDS011;5649;52.422;13.754;2023-02-21T08:53:10;0.87;;;0.83;;
11185;SDS011;5649;52.422;13.754;2023-02-21T08:55:36;1.60;;;0.80;;
11185;SDS011;5649;52.422;13.754;2023-02-21T08:58:02;1.00;;;1.00;;
11185;SDS011;5649;52.422;13.754;2023-02-21T09:00:28;0.80;;;0.80;;
11185;SDS011;5649;52.422;13.754;2023-02-21T09:02:54;4.83;;;0.83;;
11185;SDS011;5649;52.422;13.754;2023-02-21T09:05:22;2.13;;;0.90;;
11185;SDS011;5649;52.422;13.754;2023-02-21T09:07:51;0.60;;;0.60;;
11185;SDS011;5649;52.422;13.754;2023-02-21T09:10:19;4.10;;;0.83;;
11185;SDS011;5649;52.422;13.754;2023-02-21T09:12:45;0.70;;;0.70;;
11185;SDS011;5649;52.422;13.754;2023-02-21T09:15:15;0.90;;;0.90;;
11185;SDS011;5649;52.422;13.754;2023-02-21T09:17:41;0.87;;;0.87;;
11185;SDS011;5649;52.422;13.754;2023-02-21T09:20:07;0.90;;;0.70;;
11185;SDS011;5649;52.422;13.754;2023-02-21T09:22:34;0.90;;;0.90;;
11185;SDS011;5649;52.422;13.754;2023-02-21T09:25:00;1.03;;;0.87;;
11185;SDS011;5649;52.422;13.754;2023-02-21T09:27:27;0.70;;;0.70;;
11185;SDS011;5649;52.422;13.754;2023-02-21T09:30:05;2.87;;;0.80;;
11185;SDS011;5649;52.422;13.754;2023-02-21T09:32:32;1.23;;;0.93;;
11185;SDS011;5649;52.422;13.754;2023-02-21T09:34:59;2.30;;;0.90;;
11185;SDS011;5649;52.422;13.754;2023-02-21T09:37:25;1.27;;;0.80;;
11185;SDS011;5649;52.422;13.754;2023-02-21T09:39:51;0.70;;;0.70;;
11185;SDS011;5649;52.422;13.754;2023-02-21T09:42:17;0.80;;;0.80;;
11185;SDS011;5649;52.422;13.754;2023-02-21T09:44:44;0.83;;;0.83;;
11185;SDS011;5649;52.422;13.754;2023-02-21T09:47:14;3.60;;;1.00;;
11185;SDS011;5649;52.422;13.754;2023-02-21T09:49:44;8.30;;;1.13;;
11185;SDS011;5649;52.422;13.754;2023-02-21T09:52:21;0.80;;;0.80;;
11185;SDS011;5649;52.422;13.754;2023-02-21T09:54:51;2.30;;;0.87;;
11185;SDS011;5649;52.422;13.754;2023-02-21T09:57:19;1.90;;;0.97;;
11185;SDS011;5649;52.422;13.754;2023-02-21T09:59:45;6.63;;;1.53;;
11185;SDS011;5649;52.422;13.754;2023-02-21T10:10:41;3.27;;;1.47;;
11185;SDS011;5649;52.422;13.754;2023-02-21T10:15:44;1.60;;;1.07;;
11185;SDS011;5649;52.422;13.754;2023-02-21T10:20:51;7.70;;;1.43;;
11185;SDS011;5649;52.422;13.754;2023-02-21T10:23:37;13.33;;;1.30;;
11185;SDS011;5649;52.422;13.754;2023-02-21T10:26:09;5.30;;;1.27;;
11185;SDS011;5649;52.422;13.754;2023-02-21T10:28:36;0.80;;;0.80;;
11185;SDS011;5649;52.422;13.754;2023-02-21T10:33:47;3.77;;;1.03;;
11185;SDS011;5649;52.422;13.754;2023-02-21T10:36:18;1.53;;;1.23;;
11185;SDS011;5649;52.422;13.754;2023-02-21T10:38:54;2.00;;;0.80;;
11185;SDS011;5649;52.422;13.754;2023-02-21T10:41:21;6.50;;;1.23;;
11185;SDS011;5649;52.422;13.754;2023-02-21T10:43:50;1.30;;;1.20;;
11185;SDS011;5649;52.422;13.754;2023-02-21T10:46:24;6.07;;;1.40;;
11185;SDS011;5649;52.422;13.754;2023-02-21T10:48:53;8.47;;;1.10;;
11185;SDS011;5649;52.422;13.754;2023-02-21T10:51:30;11.03;;;2.03;;
11185;SDS011;5649;52.422;13.754;2023-02-21T10:56:52;5.00;;;1.20;;
11185;SDS011;5649;52.422;13.754;2023-02-21T10:59:23;3.33;;;1.63;;
11185;SDS011;5649;52.422;13.754;2023-02-21T11:01:50;4.30;;;1.43;;
11185;SDS011;5649;52.422;13.754;2023-02-21T11:06:48;11.00;;;1.70;;
11185;SDS011;5649;52.422;13.754;2023-02-21T11:11:59;2.73;;;0.93;;
11185;SDS011;5649;52.422;13.754;2023-02-21T11:14:26;3.43;;;1.13;;
11185;SDS011;5649;52.422;13.754;2023-02-21T11:17:04;6.23;;;1.00;;
11185;SDS011;5649;52.422;13.754;2023-02-21T11:27:42;3.43;;;1.27;;
11185;SDS011;5649;52.422;13.754;2023-02-21T11:30:11;2.17;;;0.87;;
11185;SDS011;5649;52.422;13.754;2023-02-21T11:32:39;8.13;;;1.47;;
11185;SDS011;5649;52.422;13.754;2023-02-21T11:38:03;2.73;;;1.30;;
11185;SDS011;5649;52.422;13.754;2023-02-21T11:40:40;3.23;;;1.40;;
11185;SDS011;5649;52.422;13.754;2023-02-21T11:43:10;1.90;;;0.70;;
11185;SDS011;5649;52.422;13.754;2023-02-21T11:45:37;4.83;;;0.90;;
11185;SDS011;5649;52.422;13.754;2023-02-21T11:48:06;5.40;;;1.33;;
11185;SDS011;5649;52.422;13.754;2023-02-21T11:50:37;1.40;;;0.90;;
11185;SDS011;5649;52.422;13.754;2023-02-21T11:53:24;4.67;;;1.40;;
11185;SDS011;5649;52.422;13.754;2023-02-21T11:55:55;1.93;;;1.37;;
11185;SDS011;5649;52.422;13.754;2023-02-21T12:00:59;2.43;;;1.07;;
11185;SDS011;5649;52.422;13.754;2023-02-21T12:08:47;16.80;;;1.90;;
11185;SDS011;5649;52.422;13.754;2023-02-21T12:16:40;8.10;;;2.00;;
11185;SDS011;5649;52.422;13.754;2023-02-21T12:22:22;6.77;;;1.60;;
11185;SDS011;5649;52.422;13.754;2023-02-21T12:27:18;8.13;;;1.40;;
11185;SDS011;5649;52.422;13.754;2023-02-21T12:50:38;15.13;;;1.67;;
11185;SDS011;5649;52.422;13.754;2023-02-21T12:53:13;7.87;;;2.53;;
11185;SDS011;5649;52.422;13.754;2023-02-21T12:55:48;4.97;;;1.47;;
11185;SDS011;5649;52.422;13.754;2023-02-21T13:08:33;8.87;;;1.83;;
11185;SDS011;5649;52.422;13.754;2023-02-21T13:13:33;12.20;;;1.73;;
11185;SDS011;5649;52.422;13.754;2023-02-21T13:16:03;5.47;;;1.60;;
11185;SDS011;5649;52.422;13.754;2023-02-21T13:18:35;10.67;;;1.93;;
11185;SDS011;5649;52.422;13.754;2023-02-21T13:29:09;10.53;;;2.67;;
11185;SDS011;5649;52.422;13.754;2023-02-21T13:31:37;3.83;;;1.60;;
11185;SDS011;5649;52.422;13.754;2023-02-21T13:34:07;8.80;;;2.00;;
11185;SDS011;5649;52.422;13.754;2023-02-21T13:36:39;2.50;;;1.20;;
11185;SDS011;5649;52.422;13.754;2023-02-21T13:52:14;10.50;;;2.40;;
11185;SDS011;5649;52.422;13.754;2023-02-21T13:57:29;13.77;;;2.40;;
11185;SDS011;5649;52.422;13.754;2023-02-21T13:59:55;8.77;;;1.93;;
11185;SDS011;5649;52.422;13.754;2023-02-21T14:02:25;4.93;;;1.57;;
11185;SDS011;5649;52.422;13.754;2023-02-21T14:12:56;8.87;;;2.33;;
11185;SDS011;5649;52.422;13.754;2023-02-21T14:15:34;11.87;;;1.60;;
11185;SDS011;5649;52.422;13.754;2023-02-21T14:18:00;12.73;;;1.97;;
11185;SDS011;5649;52.422;13.754;2023-02-21T14:20:26;10.20;;;1.67;;
11185;SDS011;5649;52.422;13.754;2023-02-21T14:22:53;5.30;;;2.40;;
11185;SDS011;5649;52.422;13.754;2023-02-21T14:25:23;21.20;;;1.97;;
11185;SDS011;5649;52.422;13.754;2023-02-21T14:27:50;32.07;;;2.50;;
11185;SDS011;5649;52.422;13.754;2023-02-21T14:30:24;12.70;;;1.67;;
11185;SDS011;5649;52.422;13.754;2023-02-21T14:32:51;12.20;;;2.13;;
11185;SDS011;5649;52.422;13.754;2023-02-21T14:37:52;10.40;;;1.40;;
11185;SDS011;5649;52.422;13.754;2023-02-21T15:03:26;23.87;;;3.00;;
11185;SDS011;5649;52.422;13.754;2023-02-21T15:06:08;25.43;;;3.03;;
11185;SDS011;5649;52.422;13.754;2023-02-21T15:08:43;11.13;;;2.20;;
11185;SDS011;5649;52.422;13.754;2023-02-21T15:13:44;28.77;;;2.97;;
11185;SDS011;5649;52.422;13.754;2023-02-21T15:16:11;22.43;;;2.67;;
11185;SDS011;5649;52.422;13.754;2023-02-21T15:18:38;13.90;;;2.03;;
11185;SDS011;5649;52.422;13.754;2023-02-21T15:23:39;15.63;;;1.90;;
11185;SDS011;5649;52.422;13.754;2023-02-21T15:28:46;11.60;;;2.33;;
11185;SDS011;5649;52.422;13.754;2023-02-21T15:31:12;9.80;;;2.10;;
11185;SDS011;5649;52.422;13.754;2023-02-21T15:33:39;9.37;;;2.13;;
11185;SDS011;5649;52.422;13.754;2023-02-21T15:36:07;4.87;;;2.23;;
11185;SDS011;5649;52.422;13.754;2023-02-21T15:38:46;7.80;;;2.20;;
11185;SDS011;5649;52.422;13.754;2023-02-21T15:41:15;11.30;;;2.00;;
11185;SDS011;5649;52.422;13.754;2023-02-21T15:43:45;16.13;;;2.80;;
11185;SDS011;5649;52.422;13.754;2023-02-21T15:46:20;13.00;;;3.10;;
11185;SDS011;5649;52.422;13.754;2023-02-21T15:48:47;13.50;;;2.00;;
11185;SDS011;5649;52.422;13.754;2023-02-21T15:51:14;24.87;;;2.63;;
11185;SDS011;5649;52.422;13.754;2023-02-21T15:53:41;16.20;;;2.43;;
11185;SDS011;5649;52.422;13.754;2023-02-21T15:56:14;43.27;;;2.97;;
11185;SDS011;5649;52.422;13.754;2023-02-21T15:58:40;13.83;;;2.77;;
11185;SDS011;5649;52.422;13.754;2023-02-21T16:01:26;11.77;;;2.03;;
11185;SDS011;5649;52.422;13.754;2023-02-21T16:03:54;25.80;;;2.30;;
11185;SDS011;5649;52.422;13.754;2023-02-21T16:06:43;7.60;;;2.00;;
11185;SDS011;5649;52.422;13.754;2023-02-21T16:11:57;9.47;;;1.97;;
11185;SDS011;5649;52.422;13.754;2023-02-21T16:19:32;11.73;;;2.53;;
11185;SDS011;5649;52.422;13.754;2023-02-21T16:22:12;12.90;;;3.37;;
11185;SDS011;5649;52.422;13.754;2023-02-21T16:24:38;11.17;;;1.93;;
11185;SDS011;5649;52.422;13.754;2023-02-21T16:27:08;7.03;;;1.93;;
11185;SDS011;5649;52.422;13.754;2023-02-21T16:29:35;21.30;;;2.93;;
11185;SDS011;5649;52.422;13.754;2023-02-21T16:32:01;19.07;;;3.43;;
11185;SDS011;5649;52.422;13.754;2023-02-21T16:34:29;13.53;;;2.37;;
11185;SDS011;5649;52.422;13.754;2023-02-21T16:37:02;6.53;;;1.97;;
11185;SDS011;5649;52.422;13.754;2023-02-21T16:39:29;20.40;;;2.87;;
11185;SDS011;5649;52.422;13.754;2023-02-21T16:41:56;8.23;;;2.07;;
11185;SDS011;5649;52.422;13.754;2023-02-21T16:44:22;7.87;;;2.70;;
11185;SDS011;5649;52.422;13.754;2023-02-21T16:46:49;11.93;;;2.90;;
11185;SDS011;5649;52.422;13.754;2023-02-21T16:49:15;16.10;;;3.33;;
11185;SDS011;5649;52.422;13.754;2023-02-21T16:51:41;14.87;;;3.50;;
11185;SDS011;5649;52.422;13.754;2023-02-21T16:54:08;7.27;;;2.60;;
11185;SDS011;5649;52.422;13.754;2023-02-21T16:56:36;27.13;;;3.40;;
11185;SDS011;5649;52.422;13.754;2023-02-21T16:59:07;20.83;;;4.13;;
11185;SDS011;5649;52.422;13.754;2023-02-21T17:01:33;20.87;;;3.23;;
11185;SDS011;5649;52.422;13.754;2023-02-21T17:04:00;9.17;;;2.50;;
11185;SDS011;5649;52.422;13.754;2023-02-21T17:06:29;16.57;;;3.20;;
11185;SDS011;5649;52.422;13.754;2023-02-21T17:08:55;11.87;;;2.17;;
11185;SDS011;5649;52.422;13.754;2023-02-21T17:11:23;23.33;;;3.07;;
11185;SDS011;5649;52.422;13.754;2023-02-21T17:13:49;10.83;;;2.00;;
11185;SDS011;5649;52.422;13.754;2023-02-21T17:16:15;7.73;;;2.20;;
11185;SDS011;5649;52.422;13.754;2023-02-21T17:18:44;16.33;;;2.17;;
11185;SDS011;5649;52.422;13.754;2023-02-21T17:21:11;15.03;;;2.73;;
11185;SDS011;5649;52.422;13.754;2023-02-21T17:23:37;25.97;;;3.37;;
11185;SDS011;5649;52.422;13.754;2023-02-21T17:26:03;22.73;;;3.10;;
11185;SDS011;5649;52.422;13.754;2023-02-21T17:28:29;18.20;;;3.43;;
11185;SDS011;5649;52.422;13.754;2023-02-21T17:30:55;22.03;;;3.47;;
11185;SDS011;5649;52.422;13.754;2023-02-21T17:33:21;11.80;;;2.13;;
11185;SDS011;5649;52.422;13.754;2023-02-21T17:35:47;17.60;;;4.30;;
11185;SDS011;5649;52.422;13.754;2023-02-21T17:38:14;16.43;;;2.57;;
11185;SDS011;5649;52.422;13.754;2023-02-21T17:40:40;11.13;;;2.60;;
11185;SDS011;5649;52.422;13.754;2023-02-21T17:43:06;16.00;;;3.20;;
11185;SDS011;5649;52.422;13.754;2023-02-21T17:45:33;10.83;;;2.70;;
11185;SDS011;5649;52.422;13.754;2023-02-21T17:48:00;13.23;;;2.80;;
11185;SDS011;5649;52.422;13.754;2023-02-21T17:50:28;29.10;;;3.40;;
11185;SDS011;5649;52.422;13.754;2023-02-21T17:52:54;14.30;;;3.47;;
11185;SDS011;5649;52.422;13.754;2023-02-21T17:55:21;16.00;;;4.20;;
11185;SDS011;5649;52.422;13.754;2023-02-21T17:57:49;24.37;;;4.10;;
11185;SDS011;5649;52.422;13.754;2023-02-21T18:00:22;15.80;;;3.43;;
11185;SDS011;5649;52.422;13.754;2023-02-21T18:02:49;35.90;;;3.67;;
11185;SDS011;5649;52.422;13.754;2023-02-21T18:05:15;20.20;;;4.10;;
11185;SDS011;5649;52.422;13.754;2023-02-21T18:07:49;13.30;;;2.97;;
11185;SDS011;5649;52.422;13.754;2023-02-21T18:10:15;10.83;;;3.93;;
11185;SDS011;5649;52.422;13.754;2023-02-21T18:12:42;15.60;;;3.80;;
11185;SDS011;5649;52.422;13.754;2023-02-21T18:15:08;18.10;;;3.00;;
11185;SDS011;5649;52.422;13.754;2023-02-21T18:17:35;22.33;;;4.17;;